Pine Galaxy — C6TT5 — position and weather

sailwx.info

Track history (hours):
 
Tides and Currents Weather Stations Pressure Air Temp Water Temp Dewpoint Dewpoint Depression Visibility Wind Speed Wind Dir Waves Ship Positions

Pine Galaxy

Last reported at 2015-Mar-25 04:31 UTC. Time now 2015-Mar-31 05:26 UTC.
Position N 48°47' W 126°35'.

Length 147 m; draft 8.2 m.

Type: Ship. MMSI: 311772000.

Date/timePositionNaut miles runAvg speedWind from/ knotsBaromVisibWave heightAir tempDewpointWater temp
2015-Mar-25 04:31N 48°47' W 126°35'1111.5
2015-Mar-25 03:33N 48°47' W 126°18'1111.5
2015-Mar-25 02:33N 48°47' W 126°01'1111.4
2015-Mar-25 01:33N 48°46' W 125°44'1211.6
2015-Mar-25 00:33N 48°42' W 125°27'1211.7
2015-Mar-24 23:33N 48°38' W 125°11'1111.5
2015-Mar-24 22:33N 48°32' W 124°56'1111.0
2015-Mar-24 21:33N 48°30' W 124°40'1312.5
2015-Mar-24 20:33N 48°25' W 124°23'1414.1
2015-Mar-24 19:34N 48°19' W 124°03'1413.4
2015-Mar-24 18:33N 48°16' W 123°43'1111.2
2015-Mar-24 17:32N 48°20' W 123°27'1010.4
2015-Mar-24 16:33N 48°24' W 123°13'1312.7
2015-Mar-24 15:33N 48°37' W 123°14'9 9.4
2015-Mar-24 14:33N 48°45' W 123°06'9 8.7
2015-Mar-24 13:34N 48°53' W 123°08'1212.0
2015-Mar-24 12:33N 49°02' W 123°21'1111.4
2015-Mar-24 11:33N 49°14' W 123°21'1010.2
2015-Mar-24 10:34N 49°19' W 123°08'4 3.8
2015-Mar-24 09:29N 49°18' W 123°02'0 0.0
2015-Mar-24 08:32N 49°18' W 123°02'0 0.0
2015-Mar-24 07:33N 49°18' W 123°02'0 0.0
2015-Mar-24 06:32N 49°18' W 123°02'0 0.0
2015-Mar-24 05:32N 49°18' W 123°02'0 0.0
2015-Mar-24 04:33N 49°18' W 123°02'0 0.0
2015-Mar-24 03:33N 49°18' W 123°02'0 0.0
2015-Mar-24 02:30N 49°18' W 123°02'0 0.0
2015-Mar-24 01:33N 49°18' W 123°02'0 0.0
2015-Mar-24 00:30N 49°18' W 123°02'0 0.0
2015-Mar-23 23:33N 49°18' W 123°02'0 0.0
2015-Mar-23 22:30N 49°18' W 123°02'0 0.0
2015-Mar-23 21:33N 49°18' W 123°02'0 0.0
2015-Mar-23 20:33N 49°18' W 123°02'0 0.0
2015-Mar-23 19:33N 49°18' W 123°02'0 0.0
2015-Mar-23 18:32N 49°18' W 123°02'0 0.0
2015-Mar-23 17:33N 49°18' W 123°02'0 0.0
2015-Mar-23 16:33N 49°18' W 123°02'0 0.1
2015-Mar-23 15:34N 49°18' W 123°02'4 4.2
2015-Mar-23 14:34N 49°18' W 122°56'2 1.8
2015-Mar-23 13:17N 49°17' W 122°52'0 0.0
2015-Mar-23 11:23N 49°17' W 122°52'0 0.0
2015-Mar-23 10:11N 49°17' W 122°52'0 0.1
2015-Mar-23 09:29N 49°17' W 122°52'0 0.1
2015-Mar-23 08:29N 49°17' W 122°52'0 0.0
2015-Mar-23 07:23N 49°17' W 122°52'0 0.0
2015-Mar-23 06:23N 49°17' W 122°52'0 0.0
2015-Mar-23 05:29N 49°17' W 122°52'0 0.0
2015-Mar-23 04:11N 49°17' W 122°52'0 0.0
2015-Mar-23 03:06N 49°17' W 122°52'0 0.0
2015-Mar-23 02:05N 49°17' W 122°52'0 0.0
2015-Mar-23 01:23N 49°17' W 122°52'0 0.0
2015-Mar-23 00:29N 49°17' W 122°52'0 0.0
2015-Mar-22 22:23N 49°17' W 122°52'0 0.0
2015-Mar-22 21:17N 49°17' W 122°52'0 0.0
2015-Mar-22 20:14N 49°17' W 122°52'0 0.0
2015-Mar-22 19:32N 49°17' W 122°52'0 0.0
2015-Mar-22 18:32N 49°17' W 122°52'0 0.0
2015-Mar-22 17:29N 49°17' W 122°52'0 0.0
2015-Mar-22 16:23N 49°17' W 122°52'0 0.0
2015-Mar-22 15:29N 49°17' W 122°52'0 0.0
2015-Mar-22 14:29N 49°17' W 122°52'0 0.0
2015-Mar-22 13:29N 49°17' W 122°52'0 0.0
2015-Mar-22 12:29N 49°17' W 122°52'0 0.0
2015-Mar-22 11:32N 49°17' W 122°52'0 0.0
2015-Mar-22 10:23N 49°17' W 122°52'0 0.0
2015-Mar-22 09:20N 49°17' W 122°52'0 0.0
2015-Mar-22 08:23N 49°17' W 122°52'0 0.0
2015-Mar-22 07:29N 49°17' W 122°52'0 0.0
2015-Mar-22 06:29N 49°17' W 122°52'0 0.0
2015-Mar-22 05:26N 49°17' W 122°52'0 0.0
2015-Mar-22 04:33N 49°17' W 122°52'3 2.6
2015-Mar-22 03:33N 49°18' W 122°56'5 4.7
2015-Mar-22 02:33N 49°18' W 123°03'4 4.4
2015-Mar-22 01:33N 49°19' W 123°10'9 9.4
2015-Mar-22 00:33N 49°12' W 123°20'1312.6
2015-Mar-21 23:34N 49°00' W 123°14'1413.8
2015-Mar-21 22:33N 48°50' W 123°01'1212.3
2015-Mar-21 21:33N 48°42' W 123°15'1312.7
2015-Mar-21 20:33N 48°29' W 123°10'1110.5
2015-Mar-21 19:33N 48°22' W 123°22'2 1.5
2015-Mar-21 18:33N 48°21' W 123°21'0 0.0
2015-Mar-21 17:33N 48°21' W 123°21'0 0.0
2015-Mar-21 16:33N 48°21' W 123°21'0 0.1
2015-Mar-21 15:33N 48°21' W 123°21'0 0.1
2015-Mar-21 14:33N 48°21' W 123°21'0 0.2
2015-Mar-21 13:33N 48°21' W 123°21'4 4.1
2015-Mar-21 12:33N 48°17' W 123°24'1010.2
2015-Mar-21 11:33N 48°14' W 123°38'1010.2
2015-Mar-21 10:33N 48°13' W 123°53'1413.9
2015-Mar-21 09:33N 48°19' W 124°13'1413.7
2015-Mar-21 08:33N 48°25' W 124°31'1212.3
2015-Mar-21 07:33N 48°29' W 124°49'1211.5
2015-Mar-21 06:33N 48°29' W 125°06'1110.5
2015-Mar-21 05:32N 48°24' W 125°20'1111.0
2015-Mar-21 04:32N 48°18' W 125°35'  
2015-Mar-16 03:33N 37°29' W 123°11'1312.8
2015-Mar-16 02:34N 37°37' W 122°58'1212.5
2015-Mar-16 01:33N 37°44' W 122°45'1111.5
2015-Mar-16 00:34N 37°48' W 122°32'8 8.4
2015-Mar-15 23:33N 37°56' W 122°27'1313.1
2015-Mar-15 22:34N 38°04' W 122°14'1211.5
2015-Mar-15 21:33N 38°04' W 121°59'1210.5
2015-Mar-15 20:21N 38°02' W 121°43'8 8.5
2015-Mar-15 19:26N 38°06' W 121°35'7 7.8
2015-Mar-15 18:34N 38°01' W 121°28'7 6.7
2015-Mar-15 17:34N 37°57' W 121°21'1 1.5
2015-Mar-15 16:33N 37°57' W 121°19'0 0.0
2015-Mar-15 15:32N 37°57' W 121°19'0 0.0
2015-Mar-15 14:32N 37°57' W 121°19'0 0.0
2015-Mar-15 13:32N 37°57' W 121°19'0 0.0
2015-Mar-15 12:32N 37°57' W 121°19'0 0.0
2015-Mar-15 11:32N 37°57' W 121°19'0 0.0
2015-Mar-15 10:32N 37°57' W 121°19'0 0.0
2015-Mar-15 09:32N 37°57' W 121°19'0 0.0
2015-Mar-15 08:32N 37°57' W 121°19'0 0.0
2015-Mar-15 07:32N 37°57' W 121°19'0 0.0
2015-Mar-15 06:29N 37°57' W 121°19'0 0.0
2015-Mar-15 05:32N 37°57' W 121°19'0 0.0
2015-Mar-15 04:32N 37°57' W 121°19'  
Track history (hours):
 
Tides and Currents Weather Stations Pressure Air Temp Water Temp Dewpoint Dewpoint Depression Visibility Wind Speed Wind Dir Waves Ship Positions

Pine Galaxy

Last reported at 2015-Mar-25 04:31 UTC. Time now 2015-Mar-31 05:26 UTC.
Position N 48°47' W 126°35'.

Length 147 m; draft 8.2 m.

Type: Ship. MMSI: 311772000.

Date/timePositionNaut miles runAvg speedWind from/ knotsBaromVisibWave heightAir tempDewpointWater temp
2015-Mar-25 04:31N 48°47' W 126°35'1111.5
2015-Mar-25 03:33N 48°47' W 126°18'1111.5
2015-Mar-25 02:33N 48°47' W 126°01'1111.4
2015-Mar-25 01:33N 48°46' W 125°44'1211.6
2015-Mar-25 00:33N 48°42' W 125°27'1211.7
2015-Mar-24 23:33N 48°38' W 125°11'1111.5
2015-Mar-24 22:33N 48°32' W 124°56'1111.0
2015-Mar-24 21:33N 48°30' W 124°40'1312.5
2015-Mar-24 20:33N 48°25' W 124°23'1414.1
2015-Mar-24 19:34N 48°19' W 124°03'1413.4
2015-Mar-24 18:33N 48°16' W 123°43'1111.2
2015-Mar-24 17:32N 48°20' W 123°27'1010.4
2015-Mar-24 16:33N 48°24' W 123°13'1312.7
2015-Mar-24 15:33N 48°37' W 123°14'9 9.4
2015-Mar-24 14:33N 48°45' W 123°06'9 8.7
2015-Mar-24 13:34N 48°53' W 123°08'1212.0
2015-Mar-24 12:33N 49°02' W 123°21'1111.4
2015-Mar-24 11:33N 49°14' W 123°21'1010.2
2015-Mar-24 10:34N 49°19' W 123°08'4 3.8
2015-Mar-24 09:29N 49°18' W 123°02'0 0.0
2015-Mar-24 08:32N 49°18' W 123°02'0 0.0
2015-Mar-24 07:33N 49°18' W 123°02'0 0.0
2015-Mar-24 06:32N 49°18' W 123°02'0 0.0
2015-Mar-24 05:32N 49°18' W 123°02'0 0.0
2015-Mar-24 04:33N 49°18' W 123°02'0 0.0
2015-Mar-24 03:33N 49°18' W 123°02'0 0.0
2015-Mar-24 02:30N 49°18' W 123°02'0 0.0
2015-Mar-24 01:33N 49°18' W 123°02'0 0.0
2015-Mar-24 00:30N 49°18' W 123°02'0 0.0
2015-Mar-23 23:33N 49°18' W 123°02'0 0.0
2015-Mar-23 22:30N 49°18' W 123°02'0 0.0
2015-Mar-23 21:33N 49°18' W 123°02'0 0.0
2015-Mar-23 20:33N 49°18' W 123°02'0 0.0
2015-Mar-23 19:33N 49°18' W 123°02'0 0.0
2015-Mar-23 18:32N 49°18' W 123°02'0 0.0
2015-Mar-23 17:33N 49°18' W 123°02'0 0.0
2015-Mar-23 16:33N 49°18' W 123°02'0 0.1
2015-Mar-23 15:34N 49°18' W 123°02'4 4.2
2015-Mar-23 14:34N 49°18' W 122°56'2 1.8
2015-Mar-23 13:17N 49°17' W 122°52'0 0.0
2015-Mar-23 11:23N 49°17' W 122°52'0 0.0
2015-Mar-23 10:11N 49°17' W 122°52'0 0.1
2015-Mar-23 09:29N 49°17' W 122°52'0 0.1
2015-Mar-23 08:29N 49°17' W 122°52'0 0.0
2015-Mar-23 07:23N 49°17' W 122°52'0 0.0
2015-Mar-23 06:23N 49°17' W 122°52'0 0.0
2015-Mar-23 05:29N 49°17' W 122°52'0 0.0
2015-Mar-23 04:11N 49°17' W 122°52'0 0.0
2015-Mar-23 03:06N 49°17' W 122°52'0 0.0
2015-Mar-23 02:05N 49°17' W 122°52'0 0.0
2015-Mar-23 01:23N 49°17' W 122°52'0 0.0
2015-Mar-23 00:29N 49°17' W 122°52'0 0.0
2015-Mar-22 22:23N 49°17' W 122°52'0 0.0
2015-Mar-22 21:17N 49°17' W 122°52'0 0.0
2015-Mar-22 20:14N 49°17' W 122°52'0 0.0
2015-Mar-22 19:32N 49°17' W 122°52'0 0.0
2015-Mar-22 18:32N 49°17' W 122°52'0 0.0
2015-Mar-22 17:29N 49°17' W 122°52'0 0.0
2015-Mar-22 16:23N 49°17' W 122°52'0 0.0
2015-Mar-22 15:29N 49°17' W 122°52'0 0.0
2015-Mar-22 14:29N 49°17' W 122°52'0 0.0
2015-Mar-22 13:29N 49°17' W 122°52'0 0.0
2015-Mar-22 12:29N 49°17' W 122°52'0 0.0
2015-Mar-22 11:32N 49°17' W 122°52'0 0.0
2015-Mar-22 10:23N 49°17' W 122°52'0 0.0
2015-Mar-22 09:20N 49°17' W 122°52'0 0.0
2015-Mar-22 08:23N 49°17' W 122°52'0 0.0
2015-Mar-22 07:29N 49°17' W 122°52'0 0.0
2015-Mar-22 06:29N 49°17' W 122°52'0 0.0
2015-Mar-22 05:26N 49°17' W 122°52'0 0.0
2015-Mar-22 04:33N 49°17' W 122°52'3 2.6
2015-Mar-22 03:33N 49°18' W 122°56'5 4.7
2015-Mar-22 02:33N 49°18' W 123°03'4 4.4
2015-Mar-22 01:33N 49°19' W 123°10'9 9.4
2015-Mar-22 00:33N 49°12' W 123°20'1312.6
2015-Mar-21 23:34N 49°00' W 123°14'1413.8
2015-Mar-21 22:33N 48°50' W 123°01'1212.3
2015-Mar-21 21:33N 48°42' W 123°15'1312.7
2015-Mar-21 20:33N 48°29' W 123°10'1110.5
2015-Mar-21 19:33N 48°22' W 123°22'2 1.5
2015-Mar-21 18:33N 48°21' W 123°21'0 0.0
2015-Mar-21 17:33N 48°21' W 123°21'0 0.0
2015-Mar-21 16:33N 48°21' W 123°21'0 0.1
2015-Mar-21 15:33N 48°21' W 123°21'0 0.1
2015-Mar-21 14:33N 48°21' W 123°21'0 0.2
2015-Mar-21 13:33N 48°21' W 123°21'4 4.1
2015-Mar-21 12:33N 48°17' W 123°24'1010.2
2015-Mar-21 11:33N 48°14' W 123°38'1010.2
2015-Mar-21 10:33N 48°13' W 123°53'1413.9
2015-Mar-21 09:33N 48°19' W 124°13'1413.7
2015-Mar-21 08:33N 48°25' W 124°31'1212.3
2015-Mar-21 07:33N 48°29' W 124°49'1211.5
2015-Mar-21 06:33N 48°29' W 125°06'1110.5
2015-Mar-21 05:32N 48°24' W 125°20'1111.0
2015-Mar-21 04:32N 48°18' W 125°35'  
2015-Mar-16 03:33N 37°29' W 123°11'1312.8
2015-Mar-16 02:34N 37°37' W 122°58'1212.5
2015-Mar-16 01:33N 37°44' W 122°45'1111.5
2015-Mar-16 00:34N 37°48' W 122°32'8 8.4
2015-Mar-15 23:33N 37°56' W 122°27'1313.1
2015-Mar-15 22:34N 38°04' W 122°14'1211.5
2015-Mar-15 21:33N 38°04' W 121°59'1210.5
2015-Mar-15 20:21N 38°02' W 121°43'8 8.5
2015-Mar-15 19:26N 38°06' W 121°35'7 7.8
2015-Mar-15 18:34N 38°01' W 121°28'7 6.7
2015-Mar-15 17:34N 37°57' W 121°21'1 1.5
2015-Mar-15 16:33N 37°57' W 121°19'0 0.0
2015-Mar-15 15:32N 37°57' W 121°19'0 0.0
2015-Mar-15 14:32N 37°57' W 121°19'0 0.0
2015-Mar-15 13:32N 37°57' W 121°19'0 0.0
2015-Mar-15 12:32N 37°57' W 121°19'0 0.0
2015-Mar-15 11:32N 37°57' W 121°19'0 0.0
2015-Mar-15 10:32N 37°57' W 121°19'0 0.0
2015-Mar-15 09:32N 37°57' W 121°19'0 0.0
2015-Mar-15 08:32N 37°57' W 121°19'0 0.0
2015-Mar-15 07:32N 37°57' W 121°19'0 0.0
2015-Mar-15 06:29N 37°57' W 121°19'0 0.0
2015-Mar-15 05:32N 37°57' W 121°19'0 0.0
2015-Mar-15 04:32N 37°57' W 121°19'  

Dump ship's entire track history